Time;durP1;ratioP1;P1;durP2;ratioP2;P2;SDS_P1;SDS_P2;PMS_P1;PMS_P2;Temp;Humidity;BMP_temperature;BMP_pressure;BME280_temperature;BME280_humidity;BME280_pressure;Samples;Min_cycle;Max_cycle;Signal;HPM_P1;HPM_P2
2023/04/09 00:00:22;;;;;;;1.93;0.90;;;21.40;73.90;;;;;;5104400;28;20175;-73
2023/04/09 00:02:50;;;;;;;2.10;0.70;;;21.70;72.00;;;;;;5094427;28;20586;-74
2023/04/09 00:05:17;;;;;;;4.13;1.00;;;21.80;67.10;;;;;;5095568;28;20584;-73
2023/04/09 00:07:44;;;;;;;3.10;0.80;;;21.70;70.60;;;;;;5095305;28;20198;-73
2023/04/09 00:10:12;;;;;;;2.03;0.63;;;21.60;74.60;;;;;;5096027;28;20178;-73
2023/04/09 00:12:39;;;;;;;1.83;0.60;;;21.80;70.50;;;;;;5115729;28;20562;-73
2023/04/09 00:15:07;;;;;;;2.53;0.80;;;21.80;65.90;;;;;;5115209;28;20639;-74
2023/04/09 00:17:35;;;;;;;1.83;0.80;;;21.80;67.90;;;;;;5115325;28;20290;-73
2023/04/09 00:20:03;;;;;;;4.70;0.70;;;21.90;68.60;;;;;;5115329;28;20174;-73
2023/04/09 00:22:30;;;;;;;2.90;0.70;;;22.10;64.70;;;;;;5115374;28;20174;-73
2023/04/09 00:24:58;;;;;;;0.87;0.50;;;21.40;67.20;;;;;;5108920;27;20183;-73
2023/04/09 00:27:25;;;;;;;1.33;0.67;;;21.50;68.90;;;;;;5094965;28;20654;-72
2023/04/09 00:29:56;;;;;;;2.93;0.77;;;22.10;66.80;;;;;;5094696;28;20184;-73
2023/04/09 00:32:23;;;;;;;2.17;0.77;;;22.00;65.20;;;;;;5094869;28;20229;-73
2023/04/09 00:34:50;;;;;;;2.83;0.77;;;22.00;61.50;;;;;;5094631;28;20185;-74
2023/04/09 00:37:18;;;;;;;2.67;0.63;;;22.10;65.90;;;;;;5094688;28;20183;-74
2023/04/09 00:39:46;;;;;;;2.80;0.83;;;22.60;63.70;;;;;;5094706;28;20236;-72
2023/04/09 00:42:13;;;;;;;1.97;0.87;;;22.80;63.70;;;;;;5094543;28;20601;-74
2023/04/09 00:44:41;;;;;;;1.60;0.73;;;22.50;58.90;;;;;;5094660;28;20214;-74
2023/04/09 00:47:08;;;;;;;3.63;0.90;;;22.50;61.00;;;;;;5100901;28;20705;-75
2023/04/09 00:49:35;;;;;;;3.83;0.80;;;22.70;60.50;;;;;;5100684;28;20579;-69
2023/04/09 00:52:03;;;;;;;1.10;0.63;;;22.70;58.30;;;;;;5114643;28;20206;-71
2023/04/09 00:54:30;;;;;;;2.70;1.00;;;22.70;59.70;;;;;;5114824;28;20179;-71
2023/04/09 00:56:59;;;;;;;2.53;0.70;;;22.80;59.30;;;;;;5114941;28;20264;-71
2023/04/09 00:59:27;;;;;;;1.50;0.60;;;23.70;57.40;;;;;;5114568;28;20178;-70
2023/04/09 01:01:54;;;;;;;4.70;0.90;;;23.20;52.70;;;;;;5114435;28;20227;-71
2023/04/09 01:04:23;;;;;;;2.70;0.90;;;23.60;58.20;;;;;;5114663;28;20235;-71
2023/04/09 01:07:19;;;;;;;0.67;0.50;;;24.30;55.30;;;;;;5114612;28;20181;-71
2023/04/09 01:10:14;;;;;;;1.87;0.60;;;24.50;50.30;;;;;;5104626;28;20175;-71
2023/04/09 01:13:00;;;;;;;2.10;0.70;;;24.20;48.60;;;;;;5096503;28;20301;-73
2023/04/09 01:15:31;;;;;;;2.83;0.80;;;24.10;48.90;;;;;;5094267;28;20198;-74
2023/04/09 01:18:17;;;;;;;1.90;0.67;;;24.20;49.00;;;;;;5098912;28;20257;-73
2023/04/09 01:21:19;;;;;;;1.97;0.60;;;24.10;47.50;;;;;;5093902;28;20183;-74
2023/04/09 01:24:09;;;;;;;1.03;0.50;;;23.90;48.00;;;;;;5080539;28;20191;-73
2023/04/09 01:26:48;;;;;;;4.07;0.80;;;24.30;45.90;;;;;;5093927;28;20642;-73
2023/04/09 01:29:19;;;;;;;1.60;0.70;;;24.20;46.20;;;;;;5107660;28;20627;-73
2023/04/09 01:31:48;;;;;;;3.00;0.83;;;24.50;47.50;;;;;;5114150;28;20174;-72
2023/04/09 01:34:17;;;;;;;3.17;0.87;;;24.80;43.20;;;;;;5093278;28;20187;-69
2023/04/09 01:36:51;;;;;;;3.23;0.60;;;24.20;43.30;;;;;;5093771;28;20240;-67
2023/04/09 01:39:19;;;;;;;1.37;0.70;;;24.50;39.90;;;;;;5093423;28;20179;-73
2023/04/09 01:41:47;;;;;;;1.10;0.57;;;24.70;39.50;;;;;;5100170;28;20285;-72
2023/04/09 01:44:16;;;;;;;1.13;0.67;;;24.50;37.80;;;;;;5096897;28;20228;-72
2023/04/09 01:46:46;;;;;;;0.93;0.50;;;24.60;40.20;;;;;;5093448;28;20175;-72
2023/04/09 01:49:14;;;;;;;1.33;0.50;;;24.50;36.80;;;;;;5094452;28;20202;-73
2023/04/09 01:51:41;;;;;;;1.40;0.53;;;24.70;37.10;;;;;;5104452;28;20175;-73
2023/04/09 01:54:09;;;;;;;1.13;0.50;;;24.90;36.20;;;;;;5101472;28;20186;-73
2023/04/09 01:56:45;;;;;;;1.53;0.60;;;24.60;36.50;;;;;;5113714;28;20265;-72
2023/04/09 01:59:13;;;;;;;2.80;0.60;;;24.40;34.50;;;;;;5111733;28;20174;-72
2023/04/09 02:02:08;;;;;;;1.17;0.40;;;24.10;36.00;;;;;;5113628;28;20559;-70
2023/04/09 02:04:47;;;;;;;2.00;0.70;;;24.40;35.30;;;;;;5113024;28;20259;-71
2023/04/09 02:07:33;;;;;;;1.97;0.50;;;24.40;37.70;;;;;;5113517;28;20645;-71
2023/04/09 02:10:01;;;;;;;1.83;0.90;;;24.20;32.90;;;;;;5113320;28;20177;-73
2023/04/09 02:12:32;;;;;;;2.00;0.63;;;24.70;34.40;;;;;;5111276;28;20575;-70
2023/04/09 02:15:01;;;;;;;1.80;0.97;;;24.60;34.50;;;;;;5113259;28;20171;-73
2023/04/09 02:17:28;;;;;;;1.20;0.50;;;24.80;33.60;;;;;;5113094;28;20301;-68
2023/04/09 02:19:56;;;;;;;1.90;0.57;;;24.80;30.60;;;;;;5108120;28;20187;-73
2023/04/09 02:22:23;;;;;;;1.70;0.57;;;24.50;29.20;;;;;;5093575;28;20269;-71
2023/04/09 02:24:50;;;;;;;1.33;0.80;;;24.60;32.10;;;;;;5112906;28;20178;-69
2023/04/09 02:27:18;;;;;;;0.70;0.50;;;24.80;29.50;;;;;;5113175;28;20170;-71
2023/04/09 02:29:45;;;;;;;1.07;0.67;;;24.20;30.90;;;;;;5111640;28;20665;-73
2023/04/09 02:32:12;;;;;;;2.33;0.90;;;24.90;29.90;;;;;;5113100;28;20206;-70
2023/04/09 02:34:40;;;;;;;1.93;0.80;;;25.00;29.10;;;;;;5113190;28;20315;-72
2023/04/09 02:37:07;;;;;;;1.10;0.60;;;24.90;28.50;;;;;;5113464;28;20508;-73
2023/04/09 02:39:35;;;;;;;1.53;0.40;;;25.20;29.30;;;;;;5106731;28;20179;-71
2023/04/09 02:42:02;;;;;;;2.33;0.97;;;25.00;24.80;;;;;;5093659;28;20170;-70
2023/04/09 02:44:29;;;;;;;1.37;0.77;;;24.80;26.60;;;;;;5092848;28;20504;-69
2023/04/09 02:46:57;;;;;;;1.03;0.40;;;24.70;28.20;;;;;;5092919;28;20623;-68
2023/04/09 02:49:24;;;;;;;1.20;0.60;;;24.90;24.20;;;;;;5091268;28;20667;-74
2023/04/09 02:51:51;;;;;;;1.43;1.00;;;24.60;26.00;;;;;;5092755;28;20171;-74
2023/04/09 02:54:19;;;;;;;2.90;0.70;;;24.70;26.50;;;;;;5092510;28;20186;-73
2023/04/09 02:56:46;;;;;;;2.13;0.90;;;24.70;26.40;;;;;;5103296;28;20179;-71
2023/04/09 02:59:14;;;;;;;1.60;0.63;;;24.40;26.70;;;;;;5095044;28;20270;-69
2023/04/09 03:01:41;;;;;;;1.20;0.50;;;24.10;27.20;;;;;;5092554;28;20183;-71
2023/04/09 03:04:08;;;;;;;1.57;0.50;;;24.20;26.00;;;;;;5086413;28;20535;-71
2023/04/09 03:06:36;;;;;;;1.20;0.63;;;24.40;26.60;;;;;;5091071;28;20260;-70
2023/04/09 03:09:03;;;;;;;1.60;0.57;;;24.20;26.00;;;;;;5105741;28;20185;-72
2023/04/09 03:11:31;;;;;;;4.07;0.57;;;23.70;26.10;;;;;;5112617;28;20274;-71
2023/04/09 03:13:58;;;;;;;1.73;0.63;;;23.60;27.70;;;;;;5117161;28;20241;-71
2023/04/09 03:16:25;;;;;;;2.17;0.70;;;24.10;26.90;;;;;;5103387;28;20324;-74
2023/04/09 03:18:53;;;;;;;2.27;0.53;;;23.80;25.10;;;;;;5111047;28;20637;-72
2023/04/09 03:21:20;;;;;;;2.60;0.70;;;24.20;27.90;;;;;;5111400;28;20219;-72
2023/04/09 03:23:47;;;;;;;3.33;0.80;;;24.20;26.10;;;;;;5112123;28;20179;-74
2023/04/09 03:26:15;;;;;;;1.43;0.87;;;24.00;27.10;;;;;;5118418;28;20189;-72
2023/04/09 03:28:42;;;;;;;1.77;0.90;;;23.90;26.90;;;;;;5113901;28;20184;-73
2023/04/09 03:31:10;;;;;;;1.73;0.90;;;24.10;26.40;;;;;;5099652;28;20179;-73
2023/04/09 03:33:37;;;;;;;1.60;0.70;;;24.40;28.70;;;;;;5094047;28;20226;-74
2023/04/09 03:36:05;;;;;;;2.07;0.50;;;24.20;25.90;;;;;;5094685;28;20217;-72
2023/04/09 03:38:32;;;;;;;2.00;0.50;;;24.20;25.70;;;;;;5094764;28;20262;-69
2023/04/09 03:41:00;;;;;;;0.80;0.67;;;24.30;26.40;;;;;;5094131;28;20550;-72
2023/04/09 03:43:27;;;;;;;4.57;0.83;;;24.10;24.70;;;;;;5094705;28;20262;-71
2023/04/09 03:45:55;;;;;;;1.87;0.87;;;23.60;25.10;;;;;;5094584;28;20179;-72
2023/04/09 03:48:22;;;;;;;2.47;0.60;;;23.20;25.20;;;;;;5094082;28;20261;-68
2023/04/09 03:50:49;;;;;;;2.00;0.97;;;23.40;26.10;;;;;;5094438;28;20179;-73
2023/04/09 03:53:17;;;;;;;2.87;0.97;;;23.60;26.10;;;;;;5094337;28;20550;-72
2023/04/09 03:55:44;;;;;;;3.03;1.00;;;23.20;25.90;;;;;;5093801;28;20172;-73
2023/04/09 03:58:11;;;;;;;2.13;0.70;;;23.40;26.80;;;;;;5084209;28;20182;-72
2023/04/09 04:00:39;;;;;;;6.03;0.63;;;23.40;26.70;;;;;;5094404;28;20695;-74
2023/04/09 04:03:06;;;;;;;3.03;1.00;;;23.20;27.10;;;;;;5093769;28;20252;-73
2023/04/09 04:05:33;;;;;;;1.23;0.60;;;23.10;26.80;;;;;;5099152;28;20262;-69
2023/04/09 04:08:01;;;;;;;1.77;0.67;;;22.90;26.70;;;;;;5094140;28;20186;-75
2023/04/09 04:10:28;;;;;;;0.93;0.50;;;22.80;24.70;;;;;;5093882;28;20568;-74
2023/04/09 04:12:55;;;;;;;1.73;0.80;;;22.90;25.40;;;;;;5104274;28;20218;-70
2023/04/09 04:15:23;;;;;;;3.40;0.60;;;22.90;26.40;;;;;;5109408;28;20179;-72
2023/04/09 04:17:50;;;;;;;3.43;0.70;;;23.10;26.80;;;;;;5097385;28;20724;-70
2023/04/09 04:20:17;;;;;;;2.93;0.80;;;23.10;27.40;;;;;;5113964;28;20229;-73
2023/04/09 04:22:45;;;;;;;1.43;1.00;;;22.90;27.10;;;;;;5114319;27;20235;-75
2023/04/09 04:25:12;;;;;;;5.43;1.00;;;22.80;27.70;;;;;;5113175;28;20183;-74
2023/04/09 04:27:43;;;;;;;1.97;0.80;;;22.50;26.90;;;;;;5114008;28;20546;-73
2023/04/09 04:30:10;;;;;;;4.23;0.63;;;22.50;27.70;;;;;;5114005;28;20682;-73
2023/04/09 04:32:37;;;;;;;3.07;0.80;;;22.80;27.60;;;;;;5113448;28;20569;-72
2023/04/09 04:35:05;;;;;;;2.70;0.70;;;22.80;28.40;;;;;;5111523;28;20548;-74
2023/04/09 04:37:32;;;;;;;0.97;0.67;;;22.90;29.40;;;;;;5113767;28;20207;-74
2023/04/09 04:40:04;;;;;;;1.03;0.67;;;22.90;28.90;;;;;;5113096;28;20200;-75
2023/04/09 04:42:31;;;;;;;1.80;0.80;;;22.70;29.10;;;;;;5093348;28;20187;-73
2023/04/09 04:44:59;;;;;;;2.77;1.00;;;22.80;28.50;;;;;;5094549;28;20187;-73
2023/04/09 04:47:26;;;;;;;1.80;0.90;;;22.70;28.20;;;;;;5092882;28;20273;-72
2023/04/09 04:49:54;;;;;;;1.37;0.83;;;22.50;27.70;;;;;;5093305;28;20186;-74
2023/04/09 04:52:21;;;;;;;2.93;1.17;;;22.20;28.10;;;;;;5099473;28;20258;-73
2023/04/09 04:54:49;;;;;;;1.73;0.80;;;22.40;29.60;;;;;;5097805;28;20676;-73
2023/04/09 04:57:16;;;;;;;2.63;0.87;;;22.40;28.20;;;;;;5092866;28;20183;-73
2023/04/09 04:59:43;;;;;;;3.53;0.70;;;22.40;28.40;;;;;;5093042;28;20181;-73
2023/04/09 05:02:11;;;;;;;2.87;1.03;;;22.30;28.50;;;;;;5092757;28;20186;-72
2023/04/09 05:04:38;;;;;;;1.70;0.80;;;22.00;29.30;;;;;;5106600;28;20236;-72
2023/04/09 05:07:06;;;;;;;2.30;1.23;;;21.70;29.60;;;;;;5095105;28;20229;-73
2023/04/09 05:09:33;;;;;;;5.20;1.63;;;21.60;30.10;;;;;;5092424;28;20167;-72
2023/04/09 05:12:01;;;;;;;1.80;1.00;;;21.50;28.50;;;;;;5092910;28;20908;-73
2023/04/09 05:14:28;;;;;;;2.67;0.97;;;21.30;28.50;;;;;;5092954;28;20645;-73
2023/04/09 05:16:56;;;;;;;2.17;0.90;;;21.20;30.00;;;;;;5092478;28;20218;-74
2023/04/09 05:19:23;;;;;;;1.47;0.80;;;21.20;31.00;;;;;;5092630;28;20175;-74
2023/04/09 05:21:50;;;;;;;1.37;1.10;;;21.20;30.90;;;;;;5096614;28;20181;-74
2023/04/09 05:24:18;;;;;;;4.40;1.10;;;21.00;32.00;;;;;;5092105;28;20196;-72
2023/04/09 05:26:45;;;;;;;1.23;0.63;;;21.10;31.00;;;;;;5092806;28;20182;-74
2023/04/09 05:29:13;;;;;;;2.00;0.90;;;20.90;29.70;;;;;;5092434;28;20197;-74
2023/04/09 05:31:41;;;;;;;2.37;0.80;;;20.90;29.70;;;;;;5092068;28;20262;-73
2023/04/09 05:34:09;;;;;;;3.20;0.97;;;20.90;31.60;;;;;;5090971;28;20227;-73
2023/04/09 05:36:36;;;;;;;1.43;0.90;;;21.10;32.60;;;;;;5092491;28;20178;-72
2023/04/09 05:39:04;;;;;;;1.47;0.80;;;21.30;32.20;;;;;;5091957;28;20184;-74
2023/04/09 05:41:32;;;;;;;1.83;0.70;;;21.30;32.30;;;;;;5092401;28;20686;-69
2023/04/09 05:43:59;;;;;;;1.67;0.73;;;21.40;32.00;;;;;;5097526;28;20239;-67
2023/04/09 05:46:27;;;;;;;2.53;0.90;;;21.50;32.80;;;;;;5097615;28;20270;-72
2023/04/09 05:48:55;;;;;;;1.80;1.10;;;21.50;32.70;;;;;;5092174;28;20194;-73
2023/04/09 05:51:22;;;;;;;2.90;0.90;;;21.40;32.30;;;;;;5091356;28;20542;-70
2023/04/09 05:53:50;;;;;;;2.30;0.90;;;21.40;31.50;;;;;;5091086;28;20264;-73
2023/04/09 05:56:18;;;;;;;2.07;0.97;;;21.20;30.70;;;;;;5091212;28;20701;-73
2023/04/09 05:58:46;;;;;;;1.63;0.80;;;21.10;32.30;;;;;;5091764;28;20526;-73
2023/04/09 06:01:14;;;;;;;2.27;0.90;;;21.20;33.10;;;;;;5090809;28;20583;-73
2023/04/09 06:03:41;;;;;;;2.83;1.00;;;21.10;33.00;;;;;;5095811;28;20179;-72
2023/04/09 06:06:09;;;;;;;3.10;0.83;;;21.20;33.00;;;;;;5091345;28;20269;-76
2023/04/09 06:08:36;;;;;;;4.07;0.90;;;20.90;32.50;;;;;;5091338;28;20183;-73
2023/04/09 06:11:04;;;;;;;1.73;0.90;;;20.70;33.70;;;;;;5089743;28;20187;-74
2023/04/09 06:13:31;;;;;;;2.03;1.00;;;20.50;33.80;;;;;;5094792;28;20214;-73
2023/04/09 06:15:58;;;;;;;2.13;1.20;;;20.40;34.80;;;;;;5101146;28;20208;-74
2023/04/09 06:18:26;;;;;;;4.17;1.27;;;20.40;34.40;;;;;;5094914;28;20455;-72
2023/04/09 06:21:05;;;;;;;3.80;1.53;;;20.40;35.00;;;;;;5099040;28;20753;-71
2023/04/09 06:23:34;;;;;;;1.27;0.90;;;20.40;36.00;;;;;;5109970;28;20178;-73
2023/04/09 06:26:02;;;;;;;5.23;1.27;;;20.30;36.40;;;;;;5109685;28;20192;-74
2023/04/09 06:28:30;;;;;;;5.80;1.40;;;20.40;36.80;;;;;;5091192;28;20185;-72
2023/04/09 06:30:58;;;;;;;2.27;0.77;;;20.40;36.90;;;;;;5090808;28;20182;-74
2023/04/09 06:33:25;;;;;;;2.53;0.90;;;20.40;38.30;;;;;;5091321;28;20216;-75
2023/04/09 06:35:53;;;;;;;2.60;1.00;;;20.40;37.70;;;;;;5091297;28;20218;-73
2023/04/09 06:38:20;;;;;;;3.93;1.10;;;20.30;38.30;;;;;;5093804;28;20230;-74
2023/04/09 06:40:47;;;;;;;4.60;1.00;;;20.30;38.70;;;;;;5111267;28;20174;-72
2023/04/09 06:43:15;;;;;;;2.70;0.87;;;20.30;39.10;;;;;;5111688;28;20257;-72
2023/04/09 06:45:42;;;;;;;3.07;1.10;;;20.30;39.70;;;;;;5098825;28;20179;-73
2023/04/09 06:48:10;;;;;;;3.03;0.80;;;20.20;40.40;;;;;;5091299;28;20217;-72
2023/04/09 06:50:37;;;;;;;1.67;1.10;;;20.20;40.80;;;;;;5089653;28;20236;-73
2023/04/09 06:53:06;;;;;;;1.43;0.80;;;20.10;41.50;;;;;;5094874;28;20216;-74
2023/04/09 06:55:35;;;;;;;1.83;0.90;;;20.00;41.90;;;;;;5099260;28;20183;-72
2023/04/09 06:58:02;;;;;;;2.77;1.50;;;20.00;42.90;;;;;;5112217;28;20552;-71
2023/04/09 07:00:30;;;;;;;4.53;1.13;;;20.00;44.20;;;;;;5109667;28;20255;-73
2023/04/09 07:02:57;;;;;;;3.60;1.00;;;20.00;43.40;;;;;;5095028;28;20196;-72
2023/04/09 07:05:25;;;;;;;2.90;0.80;;;19.80;44.30;;;;;;5095267;28;20632;-74
2023/04/09 07:07:52;;;;;;;2.00;1.00;;;19.70;45.00;;;;;;5092983;28;20184;-75
2023/04/09 07:10:20;;;;;;;4.20;1.60;;;19.60;45.80;;;;;;5095932;28;20167;-71
2023/04/09 07:12:47;;;;;;;3.93;2.17;;;19.60;47.20;;;;;;5099652;28;20223;-72
2023/04/09 07:15:15;;;;;;;3.23;1.33;;;19.50;48.90;;;;;;5102996;28;20634;-68
2023/04/09 07:17:42;;;;;;;4.80;1.20;;;19.40;50.00;;;;;;5109798;28;20222;-68
2023/04/09 07:20:10;;;;;;;2.93;1.37;;;19.30;51.30;;;;;;5094615;28;20189;-73
2023/04/09 07:22:37;;;;;;;3.17;1.20;;;19.10;51.40;;;;;;5095534;28;20203;-73
2023/04/09 07:25:05;;;;;;;1.77;0.90;;;19.00;53.40;;;;;;5104850;28;20244;-73
2023/04/09 07:27:32;;;;;;;2.20;0.90;;;18.90;54.90;;;;;;5094543;28;20167;-75
2023/04/09 07:30:00;;;;;;;2.03;0.90;;;18.90;56.10;;;;;;5107866;28;20175;-68
2023/04/09 07:32:27;;;;;;;1.77;0.90;;;18.80;56.30;;;;;;5103638;28;20198;-72
2023/04/09 07:34:56;;;;;;;4.20;1.40;;;18.70;57.70;;;;;;5094417;28;20232;-71
2023/04/09 07:37:23;;;;;;;2.97;1.27;;;18.60;59.40;;;;;;5093649;28;20581;-73
2023/04/09 07:39:51;;;;;;;4.97;1.47;;;18.60;59.80;;;;;;5093052;28;20190;-71
2023/04/09 07:42:18;;;;;;;4.93;1.40;;;18.50;62.80;;;;;;5094084;28;20237;-69
2023/04/09 07:44:46;;;;;;;6.43;1.23;;;18.40;65.00;;;;;;5093806;28;20677;-71
2023/04/09 07:47:13;;;;;;;2.20;1.10;;;18.40;65.30;;;;;;5094179;28;20638;-70
2023/04/09 07:49:41;;;;;;;2.57;1.03;;;18.30;68.60;;;;;;5101137;28;20193;-72
2023/04/09 07:52:08;;;;;;;2.10;0.80;;;18.20;70.20;;;;;;5094734;28;20190;-73
2023/04/09 07:54:36;;;;;;;1.73;1.17;;;18.20;72.20;;;;;;5110114;28;20179;-74
2023/04/09 07:57:03;;;;;;;3.50;1.57;;;18.20;74.30;;;;;;5113718;28;20196;-72
2023/04/09 07:59:31;;;;;;;3.77;1.53;;;18.10;78.20;;;;;;5113892;28;20243;-71
2023/04/09 08:01:59;;;;;;;1.40;1.17;;;18.00;82.40;;;;;;5111391;28;20711;-74
2023/04/09 08:04:27;;;;;;;5.37;3.50;;;17.80;85.70;;;;;;5095516;28;20198;-70
2023/04/09 08:06:54;;;;;;;4.97;2.80;;;17.70;89.30;;;;;;5099601;28;20191;-73
2023/04/09 08:09:22;;;;;;;5.10;2.33;;;17.70;93.10;;;;;;5095010;28;20255;-72
2023/04/09 08:11:49;;;;;;;3.93;1.87;;;17.50;94.80;;;;;;5094944;28;20256;-69
2023/04/09 08:14:17;;;;;;;4.40;2.27;;;17.50;95.10;;;;;;5094764;28;20214;-72
2023/04/09 08:16:46;;;;;;;5.80;2.37;;;17.60;95.10;;;;;;5094603;28;20260;-71
2023/04/09 08:19:15;;;;;;;4.57;2.50;;;17.60;95.70;;;;;;5094500;28;20656;-71
2023/04/09 08:21:43;;;;;;;6.23;3.10;;;17.60;96.10;;;;;;5094710;28;20172;-72
2023/04/09 08:24:15;;;;;;;5.90;2.20;;;17.50;97.50;;;;;;5096459;28;20718;-67
2023/04/09 08:26:43;;;;;;;5.90;2.77;;;17.40;99.20;;;;;;5114904;28;20651;-71
2023/04/09 08:29:12;;;;;;;5.10;2.00;;;17.40;99.90;;;;;;5115094;27;20171;-74
2023/04/09 08:31:41;;;;;;;5.90;2.50;;;17.30;99.90;;;;;;5111790;28;20180;-68
2023/04/09 08:34:09;;;;;;;5.13;2.10;;;17.30;99.90;;;;;;5108083;28;20582;-71
2023/04/09 08:36:36;;;;;;;4.73;1.87;;;17.20;99.90;;;;;;5114544;28;20177;-68
2023/04/09 08:39:04;;;;;;;4.30;1.80;;;17.10;99.90;;;;;;5115004;28;20257;-73
2023/04/09 08:41:31;;;;;;;7.70;1.67;;;17.10;99.90;;;;;;5114697;28;20193;-69
2023/04/09 08:43:59;;;;;;;4.53;1.73;;;17.00;99.90;;;;;;5114850;28;20641;-70
2023/04/09 08:46:27;;;;;;;4.87;1.70;;;17.00;99.90;;;;;;5114628;27;20232;-72
2023/04/09 08:48:55;;;;;;;1.83;0.97;;;17.00;99.90;;;;;;5114535;28;20182;-72
2023/04/09 08:51:24;;;;;;;4.83;1.20;;;16.90;99.90;;;;;;5114690;28;20173;-73
2023/04/09 08:54:01;;;;;;;3.77;1.93;;;16.90;99.90;;;;;;5114416;28;20210;-69
2023/04/09 08:56:29;;;;;;;4.53;1.40;;;16.80;99.90;;;;;;5114094;28;20540;-67
2023/04/09 08:58:57;;;;;;;8.80;1.70;;;16.90;99.90;;;;;;5114176;28;20174;-68
2023/04/09 09:01:25;;;;;;;5.97;1.30;;;16.80;99.90;;;;;;5112879;28;20205;-68
2023/04/09 09:04:03;;;;;;;4.40;2.00;;;16.80;99.90;;;;;;5110105;28;20259;-71
2023/04/09 09:06:34;;;;;;;3.70;1.33;;;16.60;99.90;;;;;;5095062;28;20200;-71
2023/04/09 09:09:11;;;;;;;2.57;1.30;;;16.60;99.90;;;;;;5110731;28;20170;-69
2023/04/09 09:11:41;;;;;;;5.60;1.93;;;16.60;99.90;;;;;;5108064;28;20178;-67
2023/04/09 09:14:13;;;;;;;3.83;1.70;;;16.50;99.90;;;;;;5104128;28;20206;-68
2023/04/09 09:16:44;;;;;;;3.13;1.53;;;16.40;99.90;;;;;;5103597;28;20657;-67
2023/04/09 09:19:25;;;;;;;4.87;1.97;;;16.40;99.90;;;;;;5102356;28;20538;-67
2023/04/09 09:22:04;;;;;;;2.80;1.17;;;16.50;99.90;;;;;;5101321;28;20175;-72
2023/04/09 09:24:33;;;;;;;3.73;1.40;;;16.40;99.90;;;;;;5102462;28;20179;-74
2023/04/09 09:27:01;;;;;;;2.37;1.20;;;16.30;99.90;;;;;;5102016;28;20187;-73
2023/04/09 09:29:29;;;;;;;4.63;1.13;;;16.20;99.90;;;;;;5103087;28;20189;-73
2023/04/09 09:31:56;;;;;;;5.83;1.77;;;16.10;99.90;;;;;;5103191;28;20180;-72
2023/04/09 09:34:25;;;;;;;1.47;0.80;;;16.10;99.90;;;;;;5102397;28;20214;-74
2023/04/09 09:36:52;;;;;;;3.53;1.57;;;15.80;99.90;;;;;;5095766;28;20211;-74
2023/04/09 09:39:21;;;;;;;5.93;1.30;;;15.70;99.90;;;;;;5100187;28;20229;-74
2023/04/09 09:42:05;;;;;;;2.57;0.93;;;15.50;99.90;;;;;;5104130;28;20532;-73
2023/04/09 09:44:33;;;;;;;4.00;1.30;;;15.40;99.90;;;;;;5104435;28;20174;-71
2023/04/09 09:47:02;;;;;;;1.93;1.10;;;15.20;99.90;;;;;;5117621;28;20171;-78
2023/04/09 09:49:30;;;;;;;3.13;0.87;;;15.10;99.90;;;;;;5115559;28;20174;-74
2023/04/09 09:52:01;;;;;;;2.87;1.20;;;15.00;99.90;;;;;;5115596;28;20174;-72
2023/04/09 09:54:38;;;;;;;2.37;0.90;;;14.90;99.90;;;;;;5113534;28;20190;-73
2023/04/09 09:57:14;;;;;;;4.77;1.13;;;14.80;99.90;;;;;;5111982;28;20590;-74
2023/04/09 09:59:53;;;;;;;4.20;1.20;;;14.70;99.90;;;;;;5115729;28;20174;-75
2023/04/09 10:02:23;;;;;;;2.27;1.23;;;14.60;99.90;;;;;;5113604;28;20193;-75
2023/04/09 10:04:53;;;;;;;1.37;0.93;;;14.60;99.90;;;;;;5111903;28;20181;-74
2023/04/09 10:07:21;;;;;;;2.53;1.40;;;14.50;99.90;;;;;;5113592;28;20178;-73
2023/04/09 10:09:54;;;;;;;4.17;1.40;;;14.50;99.90;;;;;;5112962;28;20174;-74
2023/04/09 10:12:22;;;;;;;3.47;1.40;;;14.40;99.90;;;;;;5113130;28;20243;-75
2023/04/09 10:15:03;;;;;;;3.27;1.20;;;14.30;99.90;;;;;;5113522;28;20611;-75
2023/04/09 10:17:31;;;;;;;3.33;1.43;;;14.20;99.90;;;;;;5113534;28;20766;-75
2023/04/09 10:20:12;;;;;;;3.67;1.37;;;14.20;99.90;;;;;;5112938;28;20641;-73
2023/04/09 10:22:39;;;;;;;3.23;1.13;;;14.20;99.90;;;;;;5113158;28;20209;-74
2023/04/09 10:25:07;;;;;;;2.23;1.10;;;14.10;99.90;;;;;;5111581;28;20178;-72
2023/04/09 10:27:35;;;;;;;3.13;1.40;;;14.10;99.90;;;;;;5112878;28;20715;-76
2023/04/09 10:30:06;;;;;;;2.83;1.10;;;14.00;99.90;;;;;;5113048;28;20269;-75
2023/04/09 10:32:36;;;;;;;2.60;1.23;;;13.90;99.90;;;;;;5113243;28;20835;-76
2023/04/09 10:35:04;;;;;;;3.50;1.53;;;13.80;99.90;;;;;;5115536;28;20186;-74
2023/04/09 10:37:32;;;;;;;5.73;2.23;;;13.80;99.90;;;;;;5117635;28;20604;-77
2023/04/09 10:39:59;;;;;;;3.90;1.87;;;13.80;99.90;;;;;;5115703;28;20181;-74
2023/04/09 10:42:32;;;;;;;4.07;1.43;;;13.70;99.90;;;;;;5116763;28;20622;-74
2023/04/09 10:45:15;;;;;;;6.70;1.50;;;13.70;99.90;;;;;;5115681;28;20244;-74
2023/04/09 10:47:45;;;;;;;3.73;1.33;;;13.60;99.90;;;;;;5117227;28;20219;-73
2023/04/09 10:50:16;;;;;;;3.50;1.30;;;13.50;99.90;;;;;;5117007;28;20176;-74
2023/04/09 10:52:44;;;;;;;4.70;1.57;;;13.40;99.90;;;;;;5116926;28;20680;-73
2023/04/09 10:55:37;;;;;;;7.07;1.90;;;13.40;99.90;;;;;;5116685;28;20174;-74
2023/04/09 10:58:06;;;;;;;4.70;2.00;;;13.30;99.90;;;;;;5106082;28;20189;-74
2023/04/09 11:00:42;;;;;;;4.33;1.77;;;13.30;99.90;;;;;;5116788;28;20174;-74
2023/04/09 11:03:31;;;;;;;4.87;2.43;;;13.20;99.90;;;;;;5115461;28;20196;-74
2023/04/09 11:06:09;;;;;;;7.03;1.97;;;13.10;99.90;;;;;;5116732;28;20178;-73
2023/04/09 11:08:37;;;;;;;4.33;1.60;;;13.10;99.90;;;;;;5115329;28;20185;-74
2023/04/09 11:11:05;;;;;;;3.50;1.60;;;13.20;99.90;;;;;;5116550;28;20166;-74
2023/04/09 11:13:33;;;;;;;4.23;1.70;;;13.20;99.90;;;;;;5116453;28;20211;-75
2023/04/09 11:16:05;;;;;;;5.77;2.73;;;13.20;99.90;;;;;;5116389;28;20179;-69
2023/04/09 11:18:35;;;;;;;6.30;2.10;;;13.20;99.90;;;;;;5116265;28;20536;-74
2023/04/09 11:21:04;;;;;;;4.47;2.40;;;13.20;99.90;;;;;;5116161;28;20540;-76
2023/04/09 11:23:32;;;;;;;3.67;2.53;;;13.10;99.90;;;;;;5116657;27;20246;-75
2023/04/09 11:26:04;;;;;;;7.40;2.20;;;13.20;99.90;;;;;;5116382;28;20180;-75
2023/04/09 11:28:33;;;;;;;6.97;2.37;;;13.20;99.90;;;;;;5116385;28;20171;-75
2023/04/09 11:31:08;;;;;;;4.23;2.40;;;13.20;99.90;;;;;;5116119;28;20177;-75
2023/04/09 11:33:35;;;;;;;5.17;2.40;;;13.10;99.90;;;;;;5115806;28;20289;-74
2023/04/09 11:36:05;;;;;;;5.33;2.03;;;13.10;99.90;;;;;;5116245;28;20170;-75
2023/04/09 11:38:33;;;;;;;7.53;2.20;;;13.20;99.90;;;;;;5115671;27;20249;-74
2023/04/09 11:41:02;;;;;;;5.10;1.83;;;13.30;99.90;;;;;;5115669;28;20177;-72
2023/04/09 11:43:30;;;;;;;7.80;2.40;;;13.20;99.90;;;;;;5115736;28;20185;-75
2023/04/09 11:45:58;;;;;;;4.33;1.90;;;13.20;99.90;;;;;;5114673;28;20181;-75
2023/04/09 11:48:26;;;;;;;3.60;1.57;;;13.00;99.90;;;;;;5115522;28;20307;-73
2023/04/09 11:50:54;;;;;;;5.67;1.70;;;12.90;99.90;;;;;;5115864;28;20264;-73
2023/04/09 11:53:23;;;;;;;5.13;1.30;;;12.90;99.90;;;;;;5115654;28;20221;-75
2023/04/09 11:55:56;;;;;;;5.73;2.10;;;13.00;99.90;;;;;;5115322;28;20178;-74
2023/04/09 11:58:27;;;;;;;2.30;1.77;;;13.00;99.90;;;;;;5115808;28;20228;-75
2023/04/09 12:01:01;;;;;;;5.43;1.37;;;13.00;99.90;;;;;;5115515;28;20166;-74
2023/04/09 12:03:31;;;;;;;4.37;1.60;;;13.00;99.90;;;;;;5115635;27;20223;-75
2023/04/09 12:06:01;;;;;;;4.57;2.00;;;13.00;99.90;;;;;;5115423;28;20528;-75
2023/04/09 12:08:30;;;;;;;4.03;1.50;;;13.00;99.90;;;;;;5113788;28;20182;-75
2023/04/09 12:11:07;;;;;;;3.77;1.30;;;13.10;99.90;;;;;;5115114;28;20222;-72
2023/04/09 12:13:35;;;;;;;4.57;1.10;;;13.40;99.90;;;;;;5115415;28;20297;-75
2023/04/09 12:16:03;;;;;;;6.57;1.60;;;13.60;99.90;;;;;;5115144;28;20265;-71
2023/04/09 12:18:31;;;;;;;2.27;1.00;;;13.70;99.90;;;;;;5114861;28;20240;-75
2023/04/09 12:21:00;;;;;;;3.90;1.20;;;13.80;99.90;;;;;;5115243;28;20177;-75
2023/04/09 12:23:30;;;;;;;2.23;1.07;;;13.90;99.90;;;;;;5115246;28;20178;-74
2023/04/09 12:26:00;;;;;;;2.97;1.10;;;13.90;99.90;;;;;;5113546;28;20179;-70
2023/04/09 12:28:29;;;;;;;4.23;1.30;;;14.00;99.90;;;;;;5114954;28;20641;-75
2023/04/09 12:30:58;;;;;;;5.97;1.97;;;14.00;99.90;;;;;;5114810;28;20755;-74
2023/04/09 12:33:26;;;;;;;4.53;1.20;;;14.10;99.90;;;;;;5114318;28;20202;-74
2023/04/09 12:35:54;;;;;;;3.43;1.47;;;14.10;99.90;;;;;;5114756;28;20178;-74
2023/04/09 12:38:22;;;;;;;5.30;1.30;;;14.10;99.90;;;;;;5114916;28;20285;-74
2023/04/09 12:40:50;;;;;;;4.70;1.03;;;14.10;99.90;;;;;;5113747;28;20564;-74
2023/04/09 12:43:18;;;;;;;3.93;1.27;;;14.10;99.90;;;;;;5114553;28;20181;-73
2023/04/09 12:45:46;;;;;;;6.77;1.37;;;14.10;99.90;;;;;;5114761;27;20266;-74
2023/04/09 12:48:13;;;;;;;2.77;1.00;;;14.10;99.90;;;;;;5114833;28;20174;-74
2023/04/09 12:50:41;;;;;;;2.53;1.30;;;14.00;99.90;;;;;;5114431;28;20594;-74
2023/04/09 12:53:09;;;;;;;2.10;1.10;;;14.10;99.90;;;;;;5114514;27;20197;-73
2023/04/09 12:55:37;;;;;;;7.10;1.40;;;14.10;99.90;;;;;;5114095;27;20186;-71
2023/04/09 12:58:05;;;;;;;3.87;1.40;;;14.20;99.90;;;;;;5114344;28;20178;-75